Terminal Aerodrome Forecast
Issued by NWS

Home | Current Version | Previous Version | Text Only | Print | Product List | Glossary On
Versions: 1 2 3 4 5 6 7 8 9 10 11 12 13 14 15 16 17 18 19 20 21 22 23 24 25 26 27
000
FTUS41 KBUF 031700
TAFJHW
TAF
KJHW 031735Z 0318/0418 16008KT 1SM -SN OVC008
     FM032000 16014G24KT 2SM -SNPL OVC030
     FM032200 17016G24KT 6SM -FZRA OVC015
     FM040200 18018G24KT 6SM -RA OVC015
     FM040600 26013G21KT 5SM BR VCSH OVC007=

USA.gov is the U.S. government's official web portal to all federal, state and local government web resources and services.